createdAt,value
2023-04-11T00:01:07.801Z,77.91
2023-04-11T00:03:41.130Z,76.47
2023-04-11T00:06:11.769Z,77.77
2023-04-11T00:08:41.109Z,78.26
2023-04-11T00:11:10.034Z,79.44
2023-04-11T00:13:39.370Z,78.05
2023-04-11T00:16:10.128Z,78.12
2023-04-11T00:18:39.608Z,77.64
2023-04-11T00:21:10.661Z,77.28
2023-04-11T00:23:40.187Z,77.74
2023-04-11T00:26:09.541Z,77.57
2023-04-11T00:28:40.876Z,79.92
2023-04-11T00:31:09.960Z,78.96
2023-04-11T00:33:41.249Z,79.15
2023-04-11T00:36:12.630Z,78.97
2023-04-11T00:38:42.380Z,78.95
2023-04-11T00:41:11.393Z,78.68
2023-04-11T00:43:40.776Z,77.47
2023-04-11T00:46:10.382Z,78.67
2023-04-11T00:48:39.765Z,77.88
2023-04-11T00:51:10.654Z,76.61
2023-04-11T00:53:40.497Z,77.37
2023-04-11T00:56:11.366Z,77.28
2023-04-11T00:58:40.939Z,79.30
2023-04-11T01:01:10.314Z,77.46
2023-04-11T01:03:41.405Z,78.70
2023-04-11T01:06:14.094Z,80.11
2023-04-11T01:08:44.705Z,80.24
2023-04-11T01:11:16.320Z,79.72
2023-04-11T01:13:45.767Z,80.21
2023-04-11T01:16:15.518Z,81.65
2023-04-11T01:18:44.840Z,80.29
2023-04-11T01:21:15.332Z,78.08
2023-04-11T01:23:48.855Z,78.46
2023-04-11T01:26:17.895Z,80.63
2023-04-11T01:28:47.578Z,80.19
2023-04-11T01:31:16.926Z,81.01
2023-04-11T01:33:46.396Z,79.95
2023-04-11T01:36:15.922Z,81.01
2023-04-11T01:38:46.714Z,79.86
2023-04-11T01:41:17.807Z,79.54
2023-04-11T01:43:47.747Z,79.73
2023-04-11T01:46:18.231Z,80.15
2023-04-11T01:48:47.752Z,81.17
2023-04-11T01:51:16.940Z,80.93
2023-04-11T01:53:48.404Z,79.56
2023-04-11T01:56:17.291Z,79.68
2023-04-11T01:58:48.815Z,81.28
2023-04-11T02:01:19.752Z,82.91
2023-04-11T02:03:49.199Z,81.37
2023-04-11T02:06:18.593Z,80.62
2023-04-11T02:08:49.278Z,82.05
2023-04-11T02:11:18.307Z,80.06
2023-04-11T02:13:47.764Z,80.43
2023-04-11T02:16:18.214Z,79.27
2023-04-11T02:18:47.944Z,79.20
2023-04-11T02:21:16.982Z,78.99
2023-04-11T02:23:46.313Z,79.19
2023-04-11T02:26:18.730Z,78.68
2023-04-11T02:28:48.247Z,79.41
2023-04-11T02:31:17.236Z,79.82
2023-04-11T02:33:46.621Z,79.39
2023-04-11T02:36:15.630Z,78.90
2023-04-11T02:38:44.863Z,79.42
2023-04-11T02:41:15.372Z,81.28
2023-04-11T02:43:44.659Z,80.62
2023-04-11T02:46:13.699Z,80.65
2023-04-11T02:48:46.120Z,79.72
2023-04-11T02:51:15.934Z,79.85
2023-04-11T02:53:45.297Z,79.47
2023-04-11T02:56:19.983Z,79.71
2023-04-11T02:58:53.537Z,82.33
2023-04-11T03:01:26.310Z,81.54
2023-04-11T03:03:59.240Z,81.59
2023-04-11T03:06:37.852Z,85.81
2023-04-11T03:09:07.191Z,83.49
2023-04-11T03:11:37.558Z,83.61
2023-04-11T03:14:07.743Z,83.51
2023-04-11T03:16:36.905Z,84.32
2023-04-11T03:19:08.493Z,83.66
2023-04-11T03:21:37.541Z,84.32
2023-04-11T03:24:07.753Z,84.78
2023-04-11T03:26:38.146Z,81.95
2023-04-11T03:29:12.791Z,81.65
2023-04-11T03:31:54.874Z,83.52
2023-04-11T03:34:26.143Z,84.38
2023-04-11T03:36:56.767Z,82.93
2023-04-11T03:39:27.057Z,81.38
2023-04-11T03:41:57.879Z,84.46
2023-04-11T03:44:27.744Z,86.08
2023-04-11T03:46:57.620Z,84.10
2023-04-11T03:49:32.297Z,81.70
2023-04-11T03:52:01.992Z,81.59
2023-04-11T03:54:31.914Z,82.15
2023-04-11T03:57:03.055Z,84.03
2023-04-11T03:59:35.262Z,84.68
2023-04-11T04:02:09.894Z,86.41
2023-04-11T04:04:47.166Z,84.83
2023-04-11T04:07:29.705Z,84.36
2023-04-11T04:10:10.155Z,83.98
2023-04-11T04:12:42.792Z,84.13
2023-04-11T04:15:21.648Z,83.33
2023-04-11T04:17:51.880Z,81.72
2023-04-11T04:20:44.802Z,83.84
2023-04-11T04:23:18.208Z,85.59
2023-04-11T04:26:02.342Z,84.51
2023-04-11T04:28:35.778Z,83.74
2023-04-11T04:31:08.521Z,83.20
2023-04-11T04:33:43.023Z,82.18
2023-04-11T04:36:25.117Z,82.67
2023-04-11T04:38:57.605Z,82.47
2023-04-11T04:41:36.326Z,81.65
2023-04-11T04:44:09.983Z,81.92
2023-04-11T04:46:44.575Z,82.22
2023-04-11T04:49:13.600Z,82.62
2023-04-11T04:51:42.916Z,82.35
2023-04-11T04:54:11.972Z,82.08
2023-04-11T04:56:41.618Z,81.67
2023-04-11T04:59:15.743Z,81.45
2023-04-11T05:01:51.800Z,81.67
2023-04-11T05:04:26.972Z,81.83
2023-04-11T05:07:00.150Z,81.60
2023-04-11T05:09:30.969Z,81.33
2023-04-11T05:12:10.900Z,81.23
2023-04-11T05:14:43.686Z,81.63
2023-04-11T05:17:13.221Z,81.99
2023-04-11T05:19:42.290Z,82.17
2023-04-11T05:22:12.699Z,82.14
2023-04-11T05:24:46.972Z,82.66
2023-04-11T05:27:16.367Z,82.52
2023-04-11T05:29:47.706Z,82.53
2023-04-11T05:32:19.631Z,82.35
2023-04-11T05:34:58.730Z,81.78
2023-04-11T05:37:37.744Z,82.13
2023-04-11T05:40:09.105Z,82.46
2023-04-11T05:42:38.444Z,82.80
2023-04-11T05:45:10.195Z,83.22
2023-04-11T05:47:39.610Z,82.64
2023-04-11T05:50:09.692Z,83.74
2023-04-11T05:52:38.997Z,81.83
2023-04-11T05:55:09.215Z,84.10
2023-04-11T05:57:38.622Z,84.58
2023-04-11T06:00:14.239Z,85.63
2023-04-11T06:02:44.698Z,84.40
2023-04-11T06:05:16.596Z,85.13
2023-04-11T06:07:46.532Z,85.41
2023-04-11T06:10:15.833Z,84.43
2023-04-11T06:12:45.121Z,84.19
2023-04-11T06:15:16.180Z,84.51
2023-04-11T06:17:46.263Z,84.84
2023-04-11T06:20:15.594Z,84.64
2023-04-11T06:22:46.921Z,84.08
2023-04-11T06:25:16.017Z,84.44
2023-04-11T06:27:45.459Z,84.89
2023-04-11T06:30:16.576Z,84.05
2023-04-11T06:32:45.966Z,84.93
2023-04-11T06:35:15.005Z,85.01
2023-04-11T06:37:46.070Z,84.39
2023-04-11T06:40:17.244Z,83.94
2023-04-11T06:42:46.765Z,84.16
2023-04-11T06:45:17.774Z,84.07
2023-04-11T06:47:47.228Z,83.42
2023-04-11T06:50:16.356Z,83.37
2023-04-11T06:52:47.030Z,84.06
2023-04-11T06:55:16.183Z,84.59
2023-04-11T06:57:45.923Z,84.32
2023-04-11T07:00:17.326Z,84.58
2023-04-11T07:02:46.927Z,84.49
2023-04-11T07:05:16.956Z,84.10
2023-04-11T07:07:46.230Z,84.32
2023-04-11T07:10:15.252Z,83.84
2023-04-11T07:12:44.597Z,83.42
2023-04-11T07:15:13.670Z,84.64
2023-04-11T07:17:44.373Z,83.83
2023-04-11T07:20:14.082Z,83.72
2023-04-11T07:22:43.965Z,83.35
2023-04-11T07:25:13.438Z,84.59
2023-04-11T07:27:43.921Z,84.70
2023-04-11T07:30:15.789Z,84.65
2023-04-11T07:32:47.260Z,84.03
2023-04-11T07:35:17.041Z,83.54
2023-04-11T07:37:48.363Z,83.96
2023-04-11T07:40:20.974Z,82.73
2023-04-11T07:42:51.072Z,81.48
2023-04-11T07:45:21.537Z,80.71
2023-04-11T07:47:52.968Z,79.35
2023-04-11T07:50:22.999Z,79.07
2023-04-11T07:52:52.955Z,78.23
2023-04-11T07:55:22.706Z,78.68
2023-04-11T07:57:54.855Z,77.32
2023-04-11T08:00:25.323Z,76.66
2023-04-11T08:02:59.783Z,76.81
2023-04-11T08:05:29.934Z,76.69
2023-04-11T08:07:59.943Z,76.08
2023-04-11T08:10:29.670Z,76.30
2023-04-11T08:13:00.024Z,75.80
2023-04-11T08:15:29.423Z,74.43
2023-04-11T08:18:00.740Z,74.06
2023-04-11T08:20:30.960Z,72.89
2023-04-11T08:23:05.862Z,72.66
2023-04-11T08:25:36.799Z,71.68
2023-04-11T08:28:07.285Z,71.15
2023-04-11T08:30:36.344Z,70.80
2023-04-11T08:33:07.275Z,70.95
2023-04-11T08:35:37.040Z,69.98
2023-04-11T08:38:06.304Z,69.10
2023-04-11T08:40:35.623Z,67.72
2023-04-11T08:43:10.132Z,67.51
2023-04-11T08:45:39.362Z,68.86
2023-04-11T08:48:12.330Z,68.92
2023-04-11T08:50:42.506Z,66.81
2023-04-11T08:53:11.780Z,66.43
2023-04-11T08:55:48.553Z,66.38
2023-04-11T08:58:17.978Z,64.83
2023-04-11T09:00:47.343Z,64.32
2023-04-11T09:03:19.072Z,64.59
2023-04-11T09:05:48.564Z,63.83
2023-04-11T09:08:19.191Z,63.70
2023-04-11T09:10:48.352Z,62.90
2023-04-11T09:13:22.653Z,63.01
2023-04-11T09:16:06.281Z,62.52
2023-04-11T09:18:38.769Z,65.74
2023-04-11T09:21:09.140Z,63.38
2023-04-11T09:23:39.388Z,61.45
2023-04-11T09:26:09.002Z,62.82
2023-04-11T09:28:45.119Z,62.68
2023-04-11T09:31:14.325Z,62.54
2023-04-11T09:33:55.155Z,61.15
2023-04-11T09:36:27.208Z,61.09
2023-04-11T09:38:57.231Z,60.93
2023-04-11T09:41:33.441Z,59.34
2023-04-11T09:44:03.428Z,59.41
2023-04-11T09:46:32.525Z,59.38
2023-04-11T09:49:03.795Z,59.08
2023-04-11T09:51:37.060Z,56.61
2023-04-11T09:54:07.295Z,57.63
2023-04-11T09:56:36.447Z,55.98
2023-04-11T09:59:06.003Z,56.63
2023-04-11T10:01:35.041Z,55.93
2023-04-11T10:04:05.907Z,56.43
2023-04-11T10:06:41.989Z,57.13
2023-04-11T10:09:13.557Z,56.79
2023-04-11T10:11:44.042Z,56.80
2023-04-11T10:14:43.752Z,57.38
2023-04-11T10:17:21.201Z,56.99
2023-04-11T10:19:57.365Z,56.81
2023-04-11T10:22:59.553Z,56.03
2023-04-11T10:25:29.672Z,55.04
2023-04-11T10:28:02.410Z,54.28
2023-04-11T10:31:04.070Z,52.69
2023-04-11T10:33:33.998Z,53.59
2023-04-11T10:36:06.367Z,53.46
2023-04-11T10:38:49.237Z,53.83
2023-04-11T10:41:36.790Z,54.23
2023-04-11T10:44:20.828Z,53.79
2023-04-11T10:46:53.806Z,54.11
2023-04-11T10:49:37.946Z,54.46
2023-04-11T10:52:24.831Z,52.58
2023-04-11T10:54:55.195Z,54.72
2023-04-11T10:57:24.514Z,54.69
2023-04-11T11:00:00.857Z,55.11
2023-04-11T11:02:40.862Z,53.77
2023-04-11T11:05:20.590Z,50.39
2023-04-11T11:07:54.258Z,52.41
2023-04-11T11:10:40.001Z,54.00
2023-04-11T11:13:09.651Z,55.35
2023-04-11T11:15:39.108Z,54.89
2023-04-11T11:18:10.351Z,54.33
2023-04-11T11:20:40.559Z,55.25
2023-04-11T11:23:12.325Z,54.23
2023-04-11T11:25:41.349Z,53.84
2023-04-11T11:28:11.512Z,53.58
2023-04-11T11:30:54.836Z,53.30
2023-04-11T11:33:27.477Z,53.14
2023-04-11T11:35:58.517Z,53.54
2023-04-11T11:38:31.871Z,53.59
2023-04-11T11:41:01.602Z,54.11
2023-04-11T11:43:30.886Z,52.25
2023-04-11T11:46:15.177Z,52.15
2023-04-11T11:49:00.117Z,52.88
2023-04-11T11:51:40.422Z,52.71
2023-04-11T11:54:12.681Z,53.08
2023-04-11T11:56:42.562Z,52.12
2023-04-11T11:59:11.878Z,52.67
2023-04-11T12:01:43.923Z,50.71
2023-04-11T12:04:13.449Z,51.34
2023-04-11T12:06:45.969Z,51.88
2023-04-11T12:09:17.157Z,51.46
2023-04-11T12:11:46.262Z,52.35
2023-04-11T12:14:24.696Z,52.64
2023-04-11T12:16:55.674Z,51.86
2023-04-11T12:19:25.631Z,51.78
2023-04-11T12:21:54.627Z,52.02
2023-04-11T12:24:25.452Z,50.98
2023-04-11T12:29:43.757Z,50.33
2023-04-11T12:32:12.735Z,50.48
2023-04-11T12:34:41.991Z,49.59
2023-04-11T12:37:11.087Z,50.08
2023-04-11T12:39:42.344Z,49.66
2023-04-11T12:42:11.848Z,48.67
2023-04-11T12:44:41.404Z,49.63
2023-04-11T12:47:10.402Z,49.95
2023-04-11T12:49:40.032Z,50.74
2023-04-11T12:52:09.347Z,49.39
2023-04-11T12:54:40.270Z,49.39
2023-04-11T12:57:09.308Z,49.58
2023-04-11T12:59:38.808Z,50.24
2023-04-11T13:02:08.537Z,50.82
2023-04-11T13:04:37.937Z,50.63
2023-04-11T13:07:07.096Z,50.44
2023-04-11T13:09:37.064Z,51.04
2023-04-11T13:12:08.137Z,50.76
2023-04-11T13:14:37.790Z,51.36
2023-04-11T13:17:06.787Z,51.15
2023-04-11T13:19:36.466Z,51.02
2023-04-11T13:22:05.567Z,51.27
2023-04-11T13:24:35.015Z,51.39
2023-04-11T13:27:04.151Z,51.89
2023-04-11T13:29:35.597Z,51.62
2023-04-11T13:32:04.811Z,51.21
2023-04-11T13:34:34.167Z,52.02
2023-04-11T13:37:03.776Z,51.76
2023-04-11T13:39:33.508Z,52.10
2023-04-11T13:42:02.588Z,52.86
2023-04-11T13:44:33.360Z,52.15
2023-04-11T13:47:03.713Z,52.72
2023-04-11T13:49:33.241Z,53.01
2023-04-11T13:52:02.262Z,52.37
2023-04-11T13:54:31.552Z,53.49
2023-04-11T13:57:01.143Z,52.52
2023-04-11T13:59:30.567Z,52.68
2023-04-11T14:02:01.428Z,53.17
2023-04-11T14:04:31.011Z,53.13
2023-04-11T14:07:00.121Z,52.15
2023-04-11T14:09:29.976Z,52.95
2023-04-11T14:11:59.966Z,52.01
2023-04-11T14:14:29.392Z,53.02
2023-04-11T14:16:58.373Z,52.48
2023-04-11T14:19:29.478Z,52.56
2023-04-11T14:21:58.921Z,53.75
2023-04-11T14:24:29.553Z,53.52
2023-04-11T14:26:58.625Z,53.86
2023-04-11T14:29:29.895Z,53.51
2023-04-11T14:32:00.263Z,54.58
2023-04-11T14:34:31.940Z,54.09
2023-04-11T14:37:01.037Z,53.67
2023-04-11T14:39:30.506Z,54.52
2023-04-11T14:42:02.165Z,53.88
2023-04-11T14:44:31.604Z,54.57
2023-04-11T14:47:00.620Z,54.64
2023-04-11T14:49:31.669Z,54.36
2023-04-11T14:52:01.341Z,53.97
2023-04-11T14:54:30.888Z,53.59
2023-04-11T14:57:00.729Z,53.68
2023-04-11T14:59:30.863Z,53.52
2023-04-11T15:02:00.087Z,54.11
2023-04-11T15:04:31.044Z,54.55
2023-04-11T15:07:00.287Z,55.10
2023-04-11T15:09:29.575Z,55.59
2023-04-11T15:11:58.610Z,54.85
2023-04-11T15:14:29.573Z,55.42
2023-04-11T15:16:58.785Z,55.55
2023-04-11T15:19:28.426Z,55.89
2023-04-11T15:21:59.102Z,55.73
2023-04-11T15:24:28.467Z,54.73
2023-04-11T15:26:57.712Z,54.73
2023-04-11T15:29:27.050Z,55.35
2023-04-11T15:31:56.107Z,55.42
2023-04-11T15:34:26.561Z,55.09
2023-04-11T15:36:56.806Z,55.74
2023-04-11T15:39:27.650Z,56.21
2023-04-11T15:41:57.145Z,56.76
2023-04-11T15:44:26.660Z,55.83
2023-04-11T15:46:55.717Z,56.62
2023-04-11T15:49:25.037Z,55.64
2023-04-11T15:51:54.121Z,55.13
2023-04-11T15:54:23.409Z,55.45
2023-04-11T15:56:53.820Z,55.75
2023-04-11T15:59:25.014Z,56.12
2023-04-11T16:01:54.094Z,56.03
2023-04-11T16:04:23.863Z,55.07
2023-04-11T16:06:53.444Z,56.42
2023-04-11T16:09:23.015Z,56.15
2023-04-11T16:11:53.662Z,56.77
2023-04-11T16:14:22.969Z,56.79
2023-04-11T16:16:53.003Z,56.93
2023-04-11T16:19:22.460Z,57.26
2023-04-11T16:21:51.543Z,56.98
2023-04-11T16:24:21.045Z,56.97
2023-04-11T16:26:50.070Z,57.26
2023-04-11T16:29:20.809Z,57.58
2023-04-11T16:31:49.937Z,57.31
2023-04-11T16:34:19.256Z,56.58
2023-04-11T16:36:48.465Z,57.55
2023-04-11T16:39:17.775Z,57.49
2023-04-11T16:41:47.451Z,58.07
2023-04-11T16:44:18.240Z,57.63
2023-04-11T16:46:48.620Z,57.55
2023-04-11T16:49:19.053Z,57.35
2023-04-11T16:51:48.039Z,57.33
2023-04-11T16:54:17.477Z,61.98
2023-04-11T16:56:47.435Z,62.61
2023-04-11T16:59:17.392Z,63.16
2023-04-11T17:01:48.022Z,65.12
2023-04-11T17:04:18.206Z,66.38
2023-04-11T17:06:47.418Z,66.27
2023-04-11T17:09:16.704Z,67.04
2023-04-11T17:11:45.728Z,68.21
2023-04-11T17:14:15.317Z,69.42
2023-04-11T17:16:46.107Z,69.10
2023-04-11T17:19:17.030Z,70.78
2023-04-11T17:21:46.130Z,71.73
2023-04-11T17:24:15.876Z,71.31
2023-04-11T17:26:45.054Z,71.77
2023-04-11T17:29:14.810Z,74.51
2023-04-11T17:31:43.844Z,74.89
2023-04-11T17:34:13.100Z,76.38
2023-04-11T17:36:43.620Z,76.92
2023-04-11T17:39:17.839Z,78.14
2023-04-11T17:41:47.312Z,79.25
2023-04-11T17:44:16.675Z,80.58
2023-04-11T17:46:46.177Z,82.47
2023-04-11T17:49:16.412Z,84.36
2023-04-11T17:51:58.171Z,81.92
2023-04-11T17:54:29.349Z,83.80
2023-04-11T17:56:58.690Z,84.40
2023-04-11T17:59:28.308Z,84.36
2023-04-11T18:01:57.571Z,84.42
2023-04-11T18:04:27.140Z,84.25
2023-04-11T18:06:58.308Z,83.48
2023-04-11T18:09:31.861Z,83.91
2023-04-11T18:12:00.976Z,84.03
2023-04-11T18:14:30.281Z,84.41
2023-04-11T18:16:59.310Z,83.72
2023-04-11T18:19:28.600Z,82.67
2023-04-11T18:21:59.012Z,81.42
2023-04-11T18:24:28.355Z,80.99
2023-04-11T18:26:57.337Z,81.57
2023-04-11T18:29:26.622Z,82.14
2023-04-11T18:32:19.467Z,81.62
2023-04-11T18:34:45.358Z,81.81
2023-04-11T18:37:15.741Z,82.11
2023-04-11T18:39:45.210Z,83.25
2023-04-11T18:42:14.213Z,85.87
2023-04-11T18:44:44.485Z,87.67
2023-04-11T18:47:16.973Z,85.89
2023-04-11T18:49:47.154Z,84.23
2023-04-11T18:52:17.816Z,83.24
2023-04-11T18:54:47.136Z,82.90
2023-04-11T18:57:16.258Z,82.11
2023-04-11T18:59:48.942Z,81.67
2023-04-11T19:02:19.736Z,81.69
2023-04-11T19:04:49.541Z,80.83
2023-04-11T19:07:20.074Z,80.33
2023-04-11T19:09:49.650Z,81.49
2023-04-11T19:12:19.232Z,81.13
2023-04-11T19:14:48.794Z,80.75
2023-04-11T19:17:17.804Z,80.94
2023-04-11T19:19:47.363Z,81.08
2023-04-11T19:22:16.561Z,81.16
2023-04-11T19:24:49.062Z,81.83
2023-04-11T19:27:18.524Z,81.69
2023-04-11T19:29:47.771Z,80.65
2023-04-11T19:32:17.699Z,80.69
2023-04-11T19:34:47.883Z,81.38
2023-04-11T19:37:19.348Z,81.48
2023-04-11T19:39:50.197Z,81.04
2023-04-11T19:42:19.197Z,80.67
2023-04-11T19:44:48.648Z,80.46
2023-04-11T19:47:19.514Z,80.57
2023-04-11T19:49:49.703Z,81.47
2023-04-11T19:52:18.783Z,80.60
2023-04-11T19:54:49.466Z,82.08
2023-04-11T19:57:18.518Z,86.91
2023-04-11T19:59:47.868Z,89.19
2023-04-11T20:02:16.888Z,89.96
2023-04-11T20:04:46.727Z,88.32
2023-04-11T20:07:15.770Z,85.84
2023-04-11T20:09:45.086Z,84.72
2023-04-11T20:12:15.766Z,84.58
2023-04-11T20:14:45.073Z,85.49
2023-04-11T20:17:14.089Z,86.26
2023-04-11T20:19:44.966Z,84.64
2023-04-11T20:22:18.355Z,84.72
2023-04-11T20:24:47.753Z,84.04
2023-04-11T20:27:18.150Z,84.09
2023-04-11T20:29:47.493Z,83.44
2023-04-11T20:32:16.478Z,84.50
2023-04-11T20:34:46.125Z,84.78
2023-04-11T20:37:17.072Z,83.75
2023-04-11T20:39:48.205Z,83.91
2023-04-11T20:42:20.582Z,83.17
2023-04-11T20:44:51.119Z,83.38
2023-04-11T20:47:20.229Z,83.42
2023-04-11T20:49:49.703Z,83.76
2023-04-11T20:52:18.799Z,83.93
2023-04-11T20:54:48.162Z,83.63
2023-04-11T20:57:18.535Z,83.10
2023-04-11T20:59:50.511Z,82.21
2023-04-11T21:02:19.760Z,82.44
2023-04-11T21:04:51.740Z,82.90
2023-04-11T21:07:21.521Z,83.05
2023-04-11T21:09:51.866Z,83.32
2023-04-11T21:12:22.301Z,83.23
2023-04-11T21:14:51.707Z,83.72
2023-04-11T21:17:21.615Z,83.41
2023-04-11T21:19:50.745Z,84.05
2023-04-11T21:22:19.777Z,83.53
2023-04-11T21:24:49.138Z,83.19
2023-04-11T21:27:18.121Z,84.84
2023-04-11T21:29:48.945Z,84.05
2023-04-11T21:32:17.976Z,83.34
2023-04-11T21:34:47.282Z,82.76
2023-04-11T21:37:16.383Z,83.04
2023-04-11T21:39:45.667Z,83.26
2023-04-11T21:42:14.657Z,82.96
2023-04-11T21:44:43.993Z,84.85
2023-04-11T21:47:14.428Z,83.00
2023-04-11T21:49:43.778Z,84.33
2023-04-11T21:52:12.793Z,83.15
2023-04-11T21:54:44.816Z,83.06
2023-04-11T21:57:14.000Z,83.88
2023-04-11T21:59:43.266Z,83.76
2023-04-11T22:02:13.821Z,83.25
2023-04-11T22:05:01.176Z,82.63
2023-04-11T22:07:38.482Z,82.58
2023-04-11T22:10:12.102Z,83.28
2023-04-11T22:12:41.794Z,83.20
2023-04-11T22:15:12.942Z,83.68
2023-04-11T22:17:46.247Z,82.94
2023-04-11T22:20:16.667Z,82.30
2023-04-11T22:22:46.127Z,83.27
2023-04-11T22:25:18.265Z,82.73
2023-04-11T22:27:47.319Z,83.10
2023-04-11T22:30:16.822Z,82.27
2023-04-11T22:32:47.377Z,82.50
2023-04-11T22:35:16.824Z,82.43
2023-04-11T22:37:45.831Z,82.28
2023-04-11T22:40:22.056Z,82.46
2023-04-11T22:42:52.045Z,82.46
2023-04-11T22:45:21.346Z,82.25
2023-04-11T22:47:54.613Z,84.64
2023-04-11T22:50:24.135Z,83.55
2023-04-11T22:52:54.837Z,82.94
2023-04-11T22:55:25.074Z,83.01
2023-04-11T22:57:54.153Z,83.21
2023-04-11T23:00:24.217Z,82.91
2023-04-11T23:02:56.904Z,83.11
2023-04-11T23:05:26.323Z,83.87
2023-04-11T23:07:55.506Z,82.95
2023-04-11T23:10:25.309Z,83.22
2023-04-11T23:12:54.321Z,83.29
2023-04-11T23:15:23.564Z,84.36
2023-04-11T23:17:54.026Z,83.89
2023-04-11T23:20:23.591Z,83.71
2023-04-11T23:22:52.541Z,85.35
2023-04-11T23:25:22.251Z,86.37
2023-04-11T23:27:51.334Z,88.17
2023-04-11T23:30:20.585Z,88.75
2023-04-11T23:32:49.653Z,87.66
2023-04-11T23:35:21.106Z,86.00
2023-04-11T23:37:50.985Z,85.10
2023-04-11T23:40:20.369Z,84.26
2023-04-11T23:42:49.329Z,84.44
2023-04-11T23:45:22.557Z,84.02
2023-04-11T23:47:52.270Z,84.47
2023-04-11T23:50:23.431Z,85.49
2023-04-11T23:52:53.814Z,85.26
2023-04-11T23:55:23.593Z,84.20
2023-04-11T23:57:52.613Z,84.24
